Terminal Aerodrome Forecast
Issued by NWS

Current Version | Previous Version | Graphics & Text | Print | Product List | Glossary On
Versions: 1 2 3 4 5 6 7 8 9 10 11 12 13 14 15 16 17 18 19 20 21 22 23 24 25 26 27 28 29 30 31 32
000
FTUS41 KILN 180200 AAA
TAFLUK
TAF AMD
KLUK 180220Z 1802/1824 15003KT P6SM VCSH SCT028 OVC060
      TEMPO 1802/1804 5SM -SHRA BR OVC028
     FM180400 00000KT 5SM BR VCSH OVC026
     FM181100 VRB03KT 2SM BR OVC015
     FM181400 23004KT 5SM HZ VCSH OVC028
     FM181900 29005KT P6SM OVC035=

USA.gov is the U.S. government's official web portal to all federal, state and local government web resources and services.